Currently 53°F in Beaumont, California, USA
53°F
62°F / 52°F
2 mph S
0.01"
Friday, November 17, 2017 8:42 PM PST

Beaumont, California Weather Summary
Last 36 Hours

Temperature Winds Hourly Humidity Dewpoint
Time Report Norm Report Norm Max Gusts Precip. Rpt. Norm Rpt. Norm Pressure
1Fri 08:42 PM  53.1°F  56°F  2 mph S  4 mph  1 mph  0.00"  90%  49%  50°F  36°F  30.17"
Fri 08:00 PM  53.4°F  57°F  calm  4 mph  7 mph  0.00"  85%  49%  49°F  37°F  30.16"
Fri 07:00 PM  54.0°F  57°F  calm  4 mph  12 mph  0.00"  82%  47%  48°F  36°F  30.14"
Fri 06:00 PM  55.2°F  58°F  calm  4 mph  8 mph  0.00"  69%  45%  45°F  36°F  30.12"
Fri 05:00 PM  56.5°F  59°F  calm  4 mph  12 mph  0.00"  63%  43%  44°F  36°F  30.10"
Fri 04:00 PM  58.6°F  62°F  3 mph SW  5 mph  12 mph  0.00"  58%  40%  43°F  36°F  30.11"
Fri 03:00 PM  61.2°F  63°F  3 mph SW  6 mph  14 mph  0.00"  53%  38%  43°F  37°F  30.10"
2Fri 02:18 PM  62.4°F  64°F  2 mph SW  6 mph  9 mph  ----  52%  37%  44°F  36°F  30.10"
Fri 02:00 PM  61.0°F  64°F  2 mph SW  6 mph  12 mph  0.00"  56%  37%  45°F  36°F  30.10"
Fri 01:00 PM  60.6°F  64°F  5 mph SW  6 mph  12 mph  0.00"  57%  38%  45°F  37°F  30.11"
Fri 12:00 PM  60.1°F  64°F  4 mph SW  6 mph  12 mph  0.00"  59%  38%  45°F  36°F  30.12"
Fri 11:00 AM  58.1°F  63°F  2 mph S  6 mph  12 mph  0.00"  61%  39%  44°F  37°F  30.14"
Fri 10:00 AM  54.9°F  61°F  calm  6 mph  8 mph  0.00"  70%  41%  45°F  37°F  30.15"
Fri 09:00 AM  51.6°F  60°F  calm  5 mph  10 mph  0.00"  78%  43%  45°F  36°F  30.16"
3Fri 08:55 AM  51.6°F  60°F  1 mph W  5 mph  8 mph  ----  77%  44%  44°F  37°F  30.16"
Fri 08:00 AM  52.7°F  58°F  calm  4 mph  7 mph  0.00"  75%  45%  45°F  36°F  30.14"
Fri 07:00 AM  53.1°F  55°F  calm  3 mph  6 mph  0.00"  68%  46%  42°F  34°F  30.11"
Fri 06:00 AM  52.9°F  54°F  1 mph W  3 mph  3 mph  0.00"  73%  47%  44°F  33°F  30.09"
Fri 05:00 AM  52.9°F  54°F  1 mph W  4 mph  none  0.00"  70%  46%  43°F  33°F  30.08"
Fri 04:51 AM  53.1°F  54°F  calm  4 mph  8 mph  0.00"  71%  46%  44°F  33°F  30.07"
Fri 03:00 AM  57.7°F  55°F  1 mph SW  3 mph  3 mph  0.00"  53%  47%  40°F  34°F  30.06"
Fri 02:00 AM  59.5°F  55°F  calm  4 mph  6 mph  0.00"  49%  47%  40°F  34°F  30.06"
Fri 01:00 AM  60.3°F  55°F  1 mph W  4 mph  8 mph  0.00"  46%  47%  39°F  34°F  30.06"
Fri 12:00 AM  60.8°F  55°F  2 mph NW  4 mph  9 mph  0.00"  45%  47%  38°F  34°F  30.07"
Thu 11:00 PM  61.5°F  55°F  5 mph W  4 mph  9 mph  0.00"  43%  48%  38°F  35°F  30.07"
Thu 10:00 PM  61.5°F  56°F  1 mph W  4 mph  7 mph  0.00"  43%  48%  38°F  36°F  30.08"
Thu 09:00 PM  61.3°F  56°F  1 mph W  4 mph  12 mph  0.00"  47%  48%  40°F  35°F  30.08"
Thu 08:00 PM  61.2°F  57°F  1 mph NW  4 mph  14 mph  0.00"  49%  47%  41°F  36°F  30.08"
Thu 07:00 PM  62.1°F  57°F  4 mph N  4 mph  14 mph  0.00"  46%  45%  40°F  36°F  30.06"
Thu 06:00 PM  63.0°F  58°F  3 mph W  4 mph  9 mph  0.00"  43%  43%  39°F  35°F  30.05"
Thu 05:00 PM  64.2°F  59°F  3 mph NW  4 mph  8 mph  0.00"  40%  42%  38°F  35°F  30.03"
Thu 04:00 PM  65.8°F  62°F  1 mph S  5 mph  9 mph  0.00"  37%  39%  38°F  36°F  30.03"
Thu 03:00 PM  66.9°F  64°F  2 mph NW  6 mph  9 mph  0.00"  37%  37%  39°F  36°F  30.02"
Thu 02:00 PM  67.8°F  64°F  3 mph W  7 mph  10 mph  0.00"  36%  36%  39°F  36°F  30.03"
Thu 01:00 PM  68.9°F  64°F  2 mph S  7 mph  12 mph  0.00"  35%  37%  39°F  36°F  30.05"
Thu 12:00 PM  69.1°F  64°F  4 mph S  7 mph  10 mph  0.00"  34%  37%  38°F  36°F  30.06"
Thu 11:00 AM  70.3°F  63°F  3 mph SW  6 mph  8 mph  0.00"  34%  38%  40°F  36°F  30.07"
Thu 10:00 AM  67.8°F  61°F  2 mph W  6 mph  10 mph  0.00"  37%  40%  40°F  36°F  30.09"
Thu 09:00 AM  65.3°F  60°F  2 mph S  4 mph  5 mph  0.00"  38%  42%  38°F  36°F  30.08"

  1. Current weather data. No green row appears if the current weather data is also the high or low for the current day.
  2. High temperature for the current day.
  3. Low temperature for the current day.

The Beaumont, California weather pages are a service of WeatherCurrents. Cherry Valley is located in northern Riverside County, California, a community of the northern part of Beaumont, along the Interstate 10 highway, in the San Gorgonio pass area, between the communities of Calimesa, Banning.
Copyright ©Fri Nov 17 20:43:38 PST 2017  WeatherCurrents. All rights reserved. - Submit questions and comments - Privacy Policy

This page automatically refreshes every 10 minutes.